Airfield :
LOGIN :

Register | Disclaimer

   EN    FR    IT 

 










Legend :    VFR   Marginal VFR   IFR   Intensive IFR   Very Intensive IFR
Visi :
Ceiling :
>= 8 km
>= 3000ft
5 to 8 km
1000 to 3000 ft
1500m to 5 km
500 to 1000 ft
800 to 1500m
200 to 500 ft
< 800m
< 200 ft
Symbols :   Thunderstorms  Fog  Heavy snow  Heavy precipitations  Wind > 20 kt
SIGMETs :     Misc.  Thunderstorms  Icing  Turbulence  Mountain Waves  Volcanic Ashes






- Airport Elevation : 399 ft
- IATA code : KIV


LUKK - Chisinau Int.

CURRENT METAR :
  • 240530Z 12004KT 090V150 CAVOK 11/11 Q1004 NOSIG

EXPIRED METARs :
  • 240500Z 11005KT CAVOK 11/10 Q1005 NOSIG
  • 240430Z 09008KT 9999 FEW005 10/10 Q1005 TEMPO 3000 BR BKN002
  • 240400Z 09008KT 9999 SCT003 BKN011 10/09 Q1005 TEMPO 3000 BR BKN002
  • 240330Z 09009KT 9999 FEW005 10/09 Q1006 TEMPO 3000 BR BKN002
  • 240300Z 11008KT 9999 SCT004 10/09 Q1007 TEMPO 3000 BR BKN002
  • 240230Z 10008KT 9999 BKN003 10/09 Q1007 TEMPO 3000 BR BKN002
  • 240130Z 10008KT 9999 FEW007 SCT028 BKN068 10/09 Q1009 TEMPO BKN006
  • 240100Z 09006KT 9999 FEW011 BKN027 10/09 Q1010 TEMPO BKN006

TAF TAF LUKK
Valid from the 24 at 06:00 until the 25 at 06:00 UTC


240506Z 2406/2506 10009KT 9999 SCT020
BECMG 2408/2410 19009KT
BECMG 2416/2418 VRB04KT
TEMPO 2500/2506 3000 BR



MET'MAP, your aeronautical weather chart ! - Copyright ORBIFLY December 2007 - Disclaimer

ORBIFLY MET'MAP TEAM :

Programming & Development : Alexandra Zaïnal
Original concept : Baudouin d'Aumeries
Technical & hardware support : Manuel Goepfert
Assistance : Marc-Olivier Méhu




SOURCES & CREDITS :

   NOAA